Krum, TX

11:57 PM CST on November 21, 2019 (GMT -0600)
US380@FM156 | | Change Station

Elev 710 ft 33.24 °N, 97.26 °W | Updated 2 minutes ago

Overcast
Overcast
49 °F
Feels Like 44 °F
N
12
Wind Variable Wind from NNE
Gusts 19.0 mph

Today
High -- | Low -- °F
--% Chance of Precip.
Yesterday
High -- | Low -- °F
Precip. -- in
Pressure 29.99 in
Visibility 10.0 miles
Clouds Overcast 800 ft
Windchill 44 °F
Dew Point 49 °F
Humidity 100%
Rainfall 0.00 in
Snow Depth Not available.
7:05 AM 5:23 PM
Waning Crescent, 24% visible
METAR KDTO 220553Z AUTO 01011KT 10SM OVC008 09/08 A3000 RMK AO2 RAE01 CIG 007V013 SLP156 P0001 60001 T00940078 10167 20094 402440094 50003
Pressure 29.99 in
Visibility 10.0 miles
Clouds Overcast 800 ft
Windchill 44 °F
Dew Point 49 °F
Humidity 100%
Rainfall 0.00 in
Snow Depth Not available.
7:05 AM 5:23 PM
Waning Crescent, 24% visible
METAR KDTO 220553Z AUTO 01011KT 10SM OVC008 09/08 A3000 RMK AO2 RAE01 CIG 007V013 SLP156 P0001 60001 T00940078 10167 20094 402440094 50003

Get Severe Weather Alerts

Thanks for signing up!

Be on the lookout for a verification email in your inbox.

You'll start receiving the daily forecast at 6 AM.

×

10-Day Weather Forecast

Almanac

Astronomy

Nov. 21, 2019 Rise Set
Actual Time
Civil Twilight
Nautical Twilight
Astronomical Twilight
Moon
Length of Visible Light
Length of Day
Tomorrow will be .
, % of the Moon is Illuminated

Today's Extremes

State Highs State Lows

Community

WunderPhotos

Category 6

Welcome to Category 6. This is the collective home for Weather Underground's featured writeups by Dr. Jeff Masters (right), Bob Henson (left), Chris Burt, and other regular contributors.

Nearby

Air Quality

  Air Quality AQ Index Pollutant
Not available.

Snow Depth

Station Depth Elevation

Earthquake Activity

City Distance Mag. Time & Date
Minimum magnitude displayed is 2.5.

Coastal Water Temperatures

Place Temperature

Stations

Nearby Weather Stations

Station Location Temp. Windchill Dew Point Humidity Wind Precip. Elev Updated Type
                   

Watches & Warnings

There are currently no watches in effect.